NCAR-RAP Real-Time Weather Data

Output produced by METARs form (06 May 2021  15:09 UTC)
found at http://weather.rap.ucar.edu/surface/
 
KRIC 061454Z 35010KT 10SM FEW300 16/02 A3007 RMK AO2 SLP189 T01560022 58001
KRIC 061354Z 34013KT 10SM FEW300 14/02 A3008 RMK AO2 SLP192 T01440017
KRIC 061254Z 01011G22KT 10SM CLR 13/02 A3008 RMK AO2 SLP192 T01280017
KRIC 061154Z 01010G20KT 10SM FEW300 12/02 A3008 RMK AO2 SLP190 T01170022 10139 20089 51016
KRIC 061054Z 36009KT 10SM CLR 10/03 A3007 RMK AO2 SLP186 T01000028
KRIC 060954Z 35006KT 10SM FEW060 09/03 A3005 RMK AO2 SLP178 T00940028
KRIC 060854Z 34009KT 10SM FEW060 11/04 A3003 RMK AO2 SLP173 T01110039 53018
KRIC 060754Z 36007KT 10SM FEW060 12/06 A3001 RMK AO2 SLP166 T01170056
KRIC 060654Z 01010KT 10SM FEW060 13/06 A2999 RMK AO2 SLP158 T01280056
KRIC 060554Z 02007KT 10SM BKN060 14/07 A2998 RMK AO2 SLP154 60000 T01390067 10228 20139 53012
KRIC 060454Z 01013G18KT 10SM BKN060 15/07 A2997 RMK AO2 SLP151 T01500072 403000150
KRIC 060354Z 02009KT 10SM BKN060 16/08 A2994 RMK AO2 SLP143 T01560078
KRIC 060254Z 36010KT 10SM BKN065 17/08 A2994 RMK AO2 SLP143 60000 T01720083 51045
KRIC 060154Z 36013G21KT 10SM BKN070 18/09 A2992 RMK AO2 PK WND 01027/0144 SLP135 T01830089
KRIC 060054Z 01013KT 10SM SCT060 SCT090 BKN110 21/11 A2986 RMK AO2 RAB22E39 SLP116 P0000 T02060111
KRIC 052354Z 01013KT 10SM FEW040 BKN065 BKN090 23/14 A2981 RMK AO2 SLP097 T02280144 10300 20228 53032